DLH205 KDEN-CYVR
Flight info
| Callsign | DLH205 |
|---|---|
| Flight time | N/A |
| Altitude | 38000 |
| Route | DDRTH1 DDRTH DCT DBS DCT LKT DCT METOW GRIZZ9 |
| Aircraft | A388/J-SADE2E3FGHIJ3J4J5M1RWXY/LB1D1 |
Departure
| Time | 2026-05-03 20:39 |
|---|---|
| Airport | Denver International Airport (KDEN) |
Arrival
| Time | N/A |
|---|---|
| Airport | Vancouver International Airport (CYVR) |
| Time | Latitude | Longitude | Altitude | Speed | Heading |
|---|---|---|---|---|---|
| 2026-05-03 20:15 | 39.85445 | -104.67576 | 5450 ft | 0 kts | 180° |
| 2026-05-03 20:27 | 39.85454 | -104.67576 | 5450 ft | 2 kts | 180° |
| 2026-05-03 20:27 | 39.85469 | -104.67576 | 5450 ft | 2 kts | 180° |
| 2026-05-03 20:28 | 39.85484 | -104.67576 | 5450 ft | 2 kts | 180° |
| 2026-05-03 20:28 | 39.85499 | -104.67575 | 5450 ft | 2 kts | 180° |
| 2026-05-03 20:28 | 39.85512 | -104.67575 | 5450 ft | 2 kts | 180° |
| 2026-05-03 20:28 | 39.85527 | -104.67575 | 5450 ft | 2 kts | 180° |
| 2026-05-03 20:29 | 39.85542 | -104.67575 | 5450 ft | 2 kts | 180° |
| 2026-05-03 20:29 | 39.85557 | -104.67575 | 5450 ft | 2 kts | 180° |
| 2026-05-03 20:29 | 39.85572 | -104.67573 | 5450 ft | 2 kts | 208° |
| 2026-05-03 20:29 | 39.85584 | -104.67561 | 5450 ft | 2 kts | 236° |
| 2026-05-03 20:30 | 39.85591 | -104.67543 | 5450 ft | 2 kts | 262° |
| 2026-05-03 20:30 | 39.85593 | -104.67534 | 5450 ft | 1 kts | 271° |
| 2026-05-03 20:30 | 39.85593 | -104.67530 | 5450 ft | 0 kts | 270° |
| 2026-05-03 20:32 | 39.85593 | -104.67533 | 5450 ft | 1 kts | 270° |
| 2026-05-03 20:32 | 39.85594 | -104.67567 | 5450 ft | 6 kts | 270° |
| 2026-05-03 20:32 | 39.85594 | -104.67634 | 5450 ft | 9 kts | 270° |
| 2026-05-03 20:32 | 39.85595 | -104.67722 | 5450 ft | 11 kts | 270° |
| 2026-05-03 20:33 | 39.85596 | -104.67839 | 5450 ft | 15 kts | 271° |
| 2026-05-03 20:33 | 39.85597 | -104.67991 | 5450 ft | 18 kts | 270° |
| 2026-05-03 20:33 | 39.85599 | -104.68166 | 5450 ft | 20 kts | 270° |
| 2026-05-03 20:33 | 39.85599 | -104.68351 | 5450 ft | 17 kts | 269° |
| 2026-05-03 20:34 | 39.85585 | -104.68488 | 5450 ft | 13 kts | 229° |
| 2026-05-03 20:34 | 39.85493 | -104.68517 | 5450 ft | 15 kts | 180° |
| 2026-05-03 20:34 | 39.85385 | -104.68518 | 5450 ft | 17 kts | 180° |
| 2026-05-03 20:34 | 39.85266 | -104.68521 | 5450 ft | 16 kts | 182° |
| 2026-05-03 20:35 | 39.85205 | -104.68618 | 5450 ft | 16 kts | 268° |
| 2026-05-03 20:35 | 39.85203 | -104.68771 | 5450 ft | 17 kts | 269° |
| 2026-05-03 20:35 | 39.85200 | -104.68927 | 5450 ft | 17 kts | 269° |
| 2026-05-03 20:35 | 39.85199 | -104.69081 | 5450 ft | 15 kts | 270° |
| 2026-05-03 20:36 | 39.85200 | -104.69204 | 5450 ft | 13 kts | 270° |
| 2026-05-03 20:36 | 39.85202 | -104.69351 | 5450 ft | 18 kts | 270° |
| 2026-05-03 20:36 | 39.85203 | -104.69501 | 5450 ft | 16 kts | 270° |
| 2026-05-03 20:36 | 39.85220 | -104.69637 | 5450 ft | 14 kts | 309° |
| 2026-05-03 20:37 | 39.85298 | -104.69661 | 5450 ft | 10 kts | 7° |
| 2026-05-03 20:37 | 39.85323 | -104.69660 | 5450 ft | 0 kts | 359° |
| 2026-05-03 20:37 | 39.85325 | -104.69660 | 5450 ft | 0 kts | 359° |
| 2026-05-03 20:37 | 39.85326 | -104.69660 | 5450 ft | 0 kts | 359° |
| 2026-05-03 20:38 | 39.85328 | -104.69660 | 5450 ft | 0 kts | 359° |
| 2026-05-03 20:38 | 39.85329 | -104.69660 | 5450 ft | 0 kts | 359° |
| 2026-05-03 20:38 | 39.85337 | -104.69660 | 5450 ft | 8 kts | 359° |
| 2026-05-03 20:38 | 39.85582 | -104.69657 | 5450 ft | 64 kts | 360° |
| 2026-05-03 20:39 | 39.86218 | -104.69647 | 5450 ft | 120 kts | 359° |
| 2026-05-03 20:39 | 39.87249 | -104.69636 | 5451 ft | 176 kts | 358° |
| 2026-05-03 20:39 | 39.88577 | -104.69640 | 5878 ft | 201 kts | 355° |
| 2026-05-03 20:39 | 39.89997 | -104.69625 | 6577 ft | 214 kts | 358° |
| 2026-05-03 20:40 | 39.91520 | -104.69580 | 7256 ft | 230 kts | 358° |
| 2026-05-03 20:40 | 39.93158 | -104.69546 | 7937 ft | 246 kts | 359° |
| 2026-05-03 20:40 | 39.94883 | -104.69501 | 8590 ft | 254 kts | 359° |
| 2026-05-03 20:40 | 39.96647 | -104.69458 | 9215 ft | 258 kts | 359° |
| 2026-05-03 20:41 | 39.98532 | -104.69412 | 9753 ft | 285 kts | 359° |
| 2026-05-03 20:41 | 40.00542 | -104.69361 | 10438 ft | 296 kts | 359° |
| 2026-05-03 20:41 | 40.02619 | -104.69363 | 11077 ft | 310 kts | 352° |
| 2026-05-03 20:41 | 40.04810 | -104.69941 | 11677 ft | 338 kts | 342° |
| 2026-05-03 20:42 | 40.07091 | -104.71031 | 12347 ft | 366 kts | 335° |
| 2026-05-03 20:42 | 40.09502 | -104.72347 | 13171 ft | 393 kts | 337° |
| 2026-05-03 20:42 | 40.12131 | -104.73660 | 13980 ft | 418 kts | 337° |
| 2026-05-03 20:42 | 40.14871 | -104.75067 | 14758 ft | 427 kts | 336° |
| 2026-05-03 20:43 | 40.17629 | -104.76474 | 15515 ft | 431 kts | 337° |
| 2026-05-03 20:43 | 40.20414 | -104.77901 | 16270 ft | 435 kts | 336° |
| 2026-05-03 20:43 | 40.23218 | -104.79336 | 17024 ft | 438 kts | 336° |
| 2026-05-03 20:43 | 40.26043 | -104.80785 | 17778 ft | 441 kts | 336° |
| 2026-05-03 20:44 | 40.28890 | -104.82246 | 18532 ft | 445 kts | 336° |
| 2026-05-03 20:44 | 40.31767 | -104.83723 | 19286 ft | 449 kts | 336° |
| 2026-05-03 20:44 | 40.34692 | -104.85222 | 20045 ft | 454 kts | 336° |
| 2026-05-03 20:44 | 40.37626 | -104.86726 | 20761 ft | 459 kts | 336° |
| 2026-05-03 20:45 | 40.40593 | -104.88250 | 21386 ft | 463 kts | 336° |
| 2026-05-03 20:45 | 40.43588 | -104.89789 | 22014 ft | 468 kts | 336° |
| 2026-05-03 20:45 | 40.46614 | -104.91346 | 22643 ft | 471 kts | 336° |
| 2026-05-03 20:45 | 40.49661 | -104.92915 | 23272 ft | 475 kts | 335° |
| 2026-05-03 20:46 | 40.52741 | -104.94504 | 23902 ft | 479 kts | 335° |
| 2026-05-03 20:46 | 40.55862 | -104.96114 | 24536 ft | 482 kts | 335° |
| 2026-05-03 20:46 | 40.58991 | -104.97734 | 25156 ft | 485 kts | 334° |
| 2026-05-03 20:46 | 40.61870 | -104.99936 | 25618 ft | 481 kts | 319° |
| 2026-05-03 20:47 | 40.64267 | -105.02963 | 26145 ft | 480 kts | 310° |
| 2026-05-03 20:47 | 40.66464 | -105.06262 | 26655 ft | 482 kts | 308° |
| 2026-05-03 20:47 | 40.68611 | -105.09642 | 27158 ft | 484 kts | 308° |
| 2026-05-03 20:47 | 40.70774 | -105.13062 | 27631 ft | 494 kts | 307° |
| 2026-05-03 20:48 | 40.72982 | -105.16559 | 28093 ft | 496 kts | 307° |
| 2026-05-03 20:48 | 40.75176 | -105.20039 | 28538 ft | 495 kts | 307° |
| 2026-05-03 20:48 | 40.77362 | -105.23509 | 28978 ft | 493 kts | 307° |
| 2026-05-03 20:48 | 40.79550 | -105.26987 | 29364 ft | 501 kts | 307° |
| 2026-05-03 20:49 | 40.81772 | -105.30526 | 29695 ft | 506 kts | 307° |
| 2026-05-03 20:49 | 40.84006 | -105.34083 | 30017 ft | 505 kts | 307° |
| 2026-05-03 20:49 | 40.86231 | -105.37630 | 30331 ft | 504 kts | 307° |
| 2026-05-03 20:49 | 40.88464 | -105.41198 | 30647 ft | 502 kts | 307° |
| 2026-05-03 20:50 | 40.90674 | -105.44730 | 30960 ft | 501 kts | 307° |
| 2026-05-03 20:50 | 40.92875 | -105.48256 | 31271 ft | 499 kts | 307° |
| 2026-05-03 20:50 | 40.95081 | -105.51790 | 31534 ft | 502 kts | 307° |
| 2026-05-03 20:50 | 40.97288 | -105.55329 | 31773 ft | 501 kts | 307° |
| 2026-05-03 20:51 | 40.99490 | -105.58866 | 32010 ft | 500 kts | 307° |
| 2026-05-03 20:51 | 41.01686 | -105.62399 | 32246 ft | 499 kts | 307° |
| 2026-05-03 20:51 | 41.03899 | -105.65961 | 32487 ft | 498 kts | 306° |
| 2026-05-03 20:51 | 41.06082 | -105.69479 | 32738 ft | 497 kts | 306° |
| 2026-05-03 20:52 | 41.08260 | -105.72994 | 32988 ft | 495 kts | 306° |
| 2026-05-03 20:52 | 41.10435 | -105.76505 | 33237 ft | 494 kts | 306° |
| 2026-05-03 20:52 | 41.12599 | -105.80008 | 33486 ft | 493 kts | 306° |
| 2026-05-03 20:52 | 41.14758 | -105.83501 | 33735 ft | 492 kts | 306° |
| 2026-05-03 20:53 | 41.16911 | -105.86991 | 33982 ft | 491 kts | 306° |
| 2026-05-03 20:53 | 41.19078 | -105.90511 | 34232 ft | 490 kts | 306° |
| 2026-05-03 20:53 | 41.21216 | -105.93986 | 34479 ft | 488 kts | 306° |
| 2026-05-03 20:53 | 41.23350 | -105.97455 | 34726 ft | 486 kts | 306° |
| 2026-05-03 20:54 | 41.25473 | -106.00915 | 34970 ft | 486 kts | 306° |
| 2026-05-03 20:54 | 41.29718 | -106.07840 | 35459 ft | 485 kts | 306° |
| 2026-05-03 20:54 | 41.31831 | -106.11293 | 35703 ft | 483 kts | 306° |
| 2026-05-03 20:55 | 41.33954 | -106.14764 | 35947 ft | 482 kts | 306° |
| 2026-05-03 20:55 | 41.36053 | -106.18203 | 36190 ft | 481 kts | 306° |
| 2026-05-03 20:55 | 41.38148 | -106.21639 | 36432 ft | 480 kts | 306° |
| 2026-05-03 20:55 | 41.40237 | -106.25068 | 36672 ft | 479 kts | 306° |
| 2026-05-03 20:56 | 41.42322 | -106.28495 | 36912 ft | 479 kts | 306° |
| 2026-05-03 20:56 | 41.44406 | -106.31924 | 37152 ft | 478 kts | 306° |
| 2026-05-03 20:56 | 41.46487 | -106.35349 | 37391 ft | 478 kts | 306° |
| 2026-05-03 20:56 | 41.48579 | -106.38801 | 37632 ft | 478 kts | 306° |
| 2026-05-03 20:57 | 41.50652 | -106.42224 | 37870 ft | 477 kts | 306° |
| 2026-05-03 20:57 | 41.52725 | -106.45649 | 38082 ft | 477 kts | 306° |
| 2026-05-03 20:57 | 41.56881 | -106.52530 | 38095 ft | 480 kts | 306° |
| 2026-05-03 20:58 | 41.61046 | -106.59440 | 38095 ft | 480 kts | 306° |
| 2026-05-03 20:58 | 41.65223 | -106.66387 | 38099 ft | 480 kts | 306° |
| 2026-05-03 20:59 | 41.69378 | -106.73312 | 38104 ft | 480 kts | 306° |